sensor_id;sensor_type;location;lat;lon;timestamp;pressure;altitude;pressure_sealevel;temperature;humidity
64853;BME280;56050;55.558;-4.644;2023-04-24T00:00:12;101009.84;;;8.80;49.71
64853;BME280;56050;55.558;-4.644;2023-04-24T00:02:40;101006.72;;;8.75;49.59
64853;BME280;56050;55.558;-4.644;2023-04-24T00:05:06;101011.63;;;8.69;49.83
64853;BME280;56050;55.558;-4.644;2023-04-24T00:07:33;101016.56;;;8.64;49.81
64853;BME280;56050;55.558;-4.644;2023-04-24T00:09:58;101022.66;;;8.61;49.95
64853;BME280;56050;55.558;-4.644;2023-04-24T00:12:24;101029.16;;;8.60;49.85
64853;BME280;56050;55.558;-4.644;2023-04-24T00:14:50;101021.03;;;8.56;49.95
64853;BME280;56050;55.558;-4.644;2023-04-24T00:17:16;101027.56;;;8.55;49.97
64853;BME280;56050;55.558;-4.644;2023-04-24T00:19:45;101023.31;;;8.54;50.01
64853;BME280;56050;55.558;-4.644;2023-04-24T00:22:10;101034.06;;;8.54;49.85
64853;BME280;56050;55.558;-4.644;2023-04-24T00:24:38;101032.09;;;8.51;50.11
64853;BME280;56050;55.558;-4.644;2023-04-24T00:27:03;101023.25;;;8.47;49.98
64853;BME280;56050;55.558;-4.644;2023-04-24T00:29:29;101020.56;;;8.47;50.10
64853;BME280;56050;55.558;-4.644;2023-04-24T00:31:54;101020.91;;;8.46;50.15
64853;BME280;56050;55.558;-4.644;2023-04-24T00:34:19;101020.50;;;8.44;50.42
64853;BME280;56050;55.558;-4.644;2023-04-24T00:36:45;101030.41;;;8.40;50.20
64853;BME280;56050;55.558;-4.644;2023-04-24T00:39:11;101033.41;;;8.35;50.43
64853;BME280;56050;55.558;-4.644;2023-04-24T00:41:36;101036.81;;;8.32;50.36
64853;BME280;56050;55.558;-4.644;2023-04-24T00:44:02;101030.25;;;8.29;50.33
64853;BME280;56050;55.558;-4.644;2023-04-24T00:46:27;101032.16;;;8.28;50.57
64853;BME280;56050;55.558;-4.644;2023-04-24T00:48:53;101037.09;;;8.26;50.41
64853;BME280;56050;55.558;-4.644;2023-04-24T00:51:19;101040.16;;;8.25;50.56
64853;BME280;56050;55.558;-4.644;2023-04-24T00:53:44;101031.69;;;8.23;50.46
64853;BME280;56050;55.558;-4.644;2023-04-24T00:56:10;101035.53;;;8.22;50.50
64853;BME280;56050;55.558;-4.644;2023-04-24T00:58:35;101041.94;;;8.17;50.49
64853;BME280;56050;55.558;-4.644;2023-04-24T01:01:02;101044.22;;;8.15;50.66
64853;BME280;56050;55.558;-4.644;2023-04-24T01:03:31;101040.03;;;8.14;50.74
64853;BME280;56050;55.558;-4.644;2023-04-24T01:05:57;101048.41;;;8.13;50.71
64853;BME280;56050;55.558;-4.644;2023-04-24T01:08:26;101046.50;;;8.13;50.72
64853;BME280;56050;55.558;-4.644;2023-04-24T01:10:53;101046.50;;;8.13;50.52
64853;BME280;56050;55.558;-4.644;2023-04-24T01:13:19;101044.53;;;8.10;50.73
64853;BME280;56050;55.558;-4.644;2023-04-24T01:15:46;101054.44;;;8.06;50.83
64853;BME280;56050;55.558;-4.644;2023-04-24T01:18:11;101052.84;;;8.02;50.75
64853;BME280;56050;55.558;-4.644;2023-04-24T01:20:39;101053.53;;;7.95;50.87
64853;BME280;56050;55.558;-4.644;2023-04-24T01:23:06;101059.59;;;7.92;50.79
64853;BME280;56050;55.558;-4.644;2023-04-24T01:25:32;101060.31;;;7.89;51.06
64853;BME280;56050;55.558;-4.644;2023-04-24T01:27:58;101055.28;;;7.84;50.99
64853;BME280;56050;55.558;-4.644;2023-04-24T01:30:25;101062.88;;;7.82;51.07
64853;BME280;56050;55.558;-4.644;2023-04-24T01:32:51;101066.97;;;7.76;50.99
64853;BME280;56050;55.558;-4.644;2023-04-24T01:35:17;101065.78;;;7.74;51.04
64853;BME280;56050;55.558;-4.644;2023-04-24T01:37:43;101075.00;;;7.73;51.30
64853;BME280;56050;55.558;-4.644;2023-04-24T01:40:09;101071.47;;;7.68;51.20
64853;BME280;56050;55.558;-4.644;2023-04-24T01:42:34;101070.28;;;7.66;51.30
64853;BME280;56050;55.558;-4.644;2023-04-24T01:44:59;101078.31;;;7.66;51.18
64853;BME280;56050;55.558;-4.644;2023-04-24T01:47:27;101085.94;;;7.64;51.30
64853;BME280;56050;55.558;-4.644;2023-04-24T01:49:52;101081.38;;;7.64;51.31
64853;BME280;56050;55.558;-4.644;2023-04-24T01:52:18;101086.28;;;7.62;51.19
64853;BME280;56050;55.558;-4.644;2023-04-24T01:54:43;101086.28;;;7.62;51.16
64853;BME280;56050;55.558;-4.644;2023-04-24T01:57:09;101088.22;;;7.62;51.12
64853;BME280;56050;55.558;-4.644;2023-04-24T01:59:35;101094.00;;;7.64;51.26
64853;BME280;56050;55.558;-4.644;2023-04-24T02:02:02;101085.16;;;7.63;51.15
64853;BME280;56050;55.558;-4.644;2023-04-24T02:04:27;101085.16;;;7.63;51.20
64853;BME280;56050;55.558;-4.644;2023-04-24T02:06:53;101089.75;;;7.63;51.19
64853;BME280;56050;55.558;-4.644;2023-04-24T02:09:18;101087.38;;;7.58;51.35
64853;BME280;56050;55.558;-4.644;2023-04-24T02:11:44;101086.19;;;7.55;51.52
64853;BME280;56050;55.558;-4.644;2023-04-24T02:14:09;101096.84;;;7.52;51.27
64853;BME280;56050;55.558;-4.644;2023-04-24T02:16:34;101093.31;;;7.48;51.77
64853;BME280;56050;55.558;-4.644;2023-04-24T02:19:01;101103.91;;;7.41;51.94
64853;BME280;56050;55.558;-4.644;2023-04-24T02:21:27;101096.53;;;7.34;52.37
64853;BME280;56050;55.558;-4.644;2023-04-24T02:23:53;101099.47;;;7.29;52.35
64853;BME280;56050;55.558;-4.644;2023-04-24T02:26:18;101100.53;;;7.25;52.76
64853;BME280;56050;55.558;-4.644;2023-04-24T02:28:43;101105.81;;;7.21;52.96
64853;BME280;56050;55.558;-4.644;2023-04-24T02:31:09;101099.63;;;7.17;52.96
64853;BME280;56050;55.558;-4.644;2023-04-24T02:33:34;101098.44;;;7.15;53.09
64853;BME280;56050;55.558;-4.644;2023-04-24T02:36:01;101108.38;;;7.14;53.00
64853;BME280;56050;55.558;-4.644;2023-04-24T02:38:27;101107.59;;;7.14;53.14
64853;BME280;56050;55.558;-4.644;2023-04-24T02:40:52;101110.34;;;7.17;53.51
64853;BME280;56050;55.558;-4.644;2023-04-24T02:43:17;101113.03;;;7.17;53.20
64853;BME280;56050;55.558;-4.644;2023-04-24T02:45:43;101106.13;;;7.16;53.43
64853;BME280;56050;55.558;-4.644;2023-04-24T02:48:08;101109.16;;;7.15;53.61
64853;BME280;56050;55.558;-4.644;2023-04-24T02:50:34;101109.84;;;7.12;53.44
64853;BME280;56050;55.558;-4.644;2023-04-24T02:52:59;101112.94;;;7.14;53.55
64853;BME280;56050;55.558;-4.644;2023-04-24T02:55:24;101116.75;;;7.13;53.54
64853;BME280;56050;55.558;-4.644;2023-04-24T02:57:50;101121.41;;;7.16;53.95
64853;BME280;56050;55.558;-4.644;2023-04-24T03:00:15;101124.78;;;7.13;53.84
64853;BME280;56050;55.558;-4.644;2023-04-24T03:02:41;101122.84;;;7.09;54.20
64853;BME280;56050;55.558;-4.644;2023-04-24T03:05:06;101126.63;;;7.08;54.18
64853;BME280;56050;55.558;-4.644;2023-04-24T03:07:32;101121.63;;;7.07;54.10
64853;BME280;56050;55.558;-4.644;2023-04-24T03:09:57;101127.69;;;7.04;54.27
64853;BME280;56050;55.558;-4.644;2023-04-24T03:12:23;101127.25;;;7.02;54.23
64853;BME280;56050;55.558;-4.644;2023-04-24T03:14:49;101133.81;;;7.04;54.19
64853;BME280;56050;55.558;-4.644;2023-04-24T03:17:14;101131.91;;;7.05;54.20
64853;BME280;56050;55.558;-4.644;2023-04-24T03:19:39;101134.25;;;7.06;54.11
64853;BME280;56050;55.558;-4.644;2023-04-24T03:22:05;101131.22;;;7.08;54.04
64853;BME280;56050;55.558;-4.644;2023-04-24T03:24:30;101132.41;;;7.10;54.15
64853;BME280;56050;55.558;-4.644;2023-04-24T03:26:56;101139.66;;;7.10;54.10
64853;BME280;56050;55.558;-4.644;2023-04-24T03:29:22;101134.31;;;7.10;53.89
64853;BME280;56050;55.558;-4.644;2023-04-24T03:31:47;101135.94;;;7.15;53.86
64853;BME280;56050;55.558;-4.644;2023-04-24T03:34:13;101126.00;;;7.15;53.95
64853;BME280;56050;55.558;-4.644;2023-04-24T03:36:38;101135.66;;;7.20;53.72
64853;BME280;56050;55.558;-4.644;2023-04-24T03:39:03;101135.75;;;7.23;53.65
64853;BME280;56050;55.558;-4.644;2023-04-24T03:41:28;101136.16;;;7.25;53.79
64853;BME280;56050;55.558;-4.644;2023-04-24T03:43:55;101135.75;;;7.23;53.76
64853;BME280;56050;55.558;-4.644;2023-04-24T03:46:21;101134.19;;;7.22;53.73
64853;BME280;56050;55.558;-4.644;2023-04-24T03:48:46;101137.56;;;7.19;53.78
64853;BME280;56050;55.558;-4.644;2023-04-24T03:51:12;101144.41;;;7.17;53.92
64853;BME280;56050;55.558;-4.644;2023-04-24T03:53:37;101143.19;;;7.14;54.00
64853;BME280;56050;55.558;-4.644;2023-04-24T03:56:02;101148.84;;;7.09;54.14
64853;BME280;56050;55.558;-4.644;2023-04-24T03:58:28;101149.88;;;7.04;54.17
64853;BME280;56050;55.558;-4.644;2023-04-24T04:00:53;101150.94;;;7.00;54.29
64853;BME280;56050;55.558;-4.644;2023-04-24T04:03:18;101157.78;;;6.97;54.07
64853;BME280;56050;55.558;-4.644;2023-04-24T04:05:44;101153.53;;;6.96;54.29
64853;BME280;56050;55.558;-4.644;2023-04-24T04:08:10;101158.84;;;6.93;54.26
64853;BME280;56050;55.558;-4.644;2023-04-24T04:10:35;101156.41;;;6.88;54.20
64853;BME280;56050;55.558;-4.644;2023-04-24T04:13:01;101160.16;;;6.83;54.25
64853;BME280;56050;55.558;-4.644;2023-04-24T04:15:26;101163.53;;;6.80;54.36
64853;BME280;56050;55.558;-4.644;2023-04-24T04:17:51;101159.31;;;6.79;54.55
64853;BME280;56050;55.558;-4.644;2023-04-24T04:20:17;101168.03;;;6.76;54.26
64853;BME280;56050;55.558;-4.644;2023-04-24T04:22:42;101168.03;;;6.76;54.26
64853;BME280;56050;55.558;-4.644;2023-04-24T04:25:08;101171.84;;;6.75;54.22
64853;BME280;56050;55.558;-4.644;2023-04-24T04:27:33;101168.38;;;6.75;54.19
64853;BME280;56050;55.558;-4.644;2023-04-24T04:29:59;101173.31;;;6.73;54.46
64853;BME280;56050;55.558;-4.644;2023-04-24T04:32:32;101174.78;;;6.70;54.18
64853;BME280;56050;55.558;-4.644;2023-04-24T04:35:01;101169.44;;;6.70;54.29
64853;BME280;56050;55.558;-4.644;2023-04-24T04:37:30;101175.13;;;6.69;54.35
64853;BME280;56050;55.558;-4.644;2023-04-24T04:39:57;101174.69;;;6.67;54.50
64853;BME280;56050;55.558;-4.644;2023-04-24T04:42:24;101179.63;;;6.65;54.22
64853;BME280;56050;55.558;-4.644;2023-04-24T04:44:49;101180.75;;;6.64;54.29
64853;BME280;56050;55.558;-4.644;2023-04-24T04:47:16;101183.00;;;6.62;54.25
64853;BME280;56050;55.558;-4.644;2023-04-24T04:49:42;101191.34;;;6.60;54.32
64853;BME280;56050;55.558;-4.644;2023-04-24T04:52:08;101185.66;;;6.62;54.43
64853;BME280;56050;55.558;-4.644;2023-04-24T04:54:33;101188.00;;;6.63;54.19
64853;BME280;56050;55.558;-4.644;2023-04-24T04:56:59;101191.13;;;6.65;54.25
64853;BME280;56050;55.558;-4.644;2023-04-24T04:59:26;101191.88;;;6.66;54.21
64853;BME280;56050;55.558;-4.644;2023-04-24T05:01:51;101206.50;;;6.68;54.28
64853;BME280;56050;55.558;-4.644;2023-04-24T05:04:16;101210.69;;;6.69;54.08
64853;BME280;56050;55.558;-4.644;2023-04-24T05:06:42;101210.69;;;6.69;53.97
64853;BME280;56050;55.558;-4.644;2023-04-24T05:09:07;101204.56;;;6.69;53.99
64853;BME280;56050;55.558;-4.644;2023-04-24T05:11:32;101206.50;;;6.68;53.98
64853;BME280;56050;55.558;-4.644;2023-04-24T05:13:58;101212.94;;;6.67;53.99
64853;BME280;56050;55.558;-4.644;2023-04-24T05:16:23;101216.75;;;6.66;54.04
64853;BME280;56050;55.558;-4.644;2023-04-24T05:18:48;101220.56;;;6.65;54.02
64853;BME280;56050;55.558;-4.644;2023-04-24T05:21:14;101220.56;;;6.65;53.81
64853;BME280;56050;55.558;-4.644;2023-04-24T05:23:39;101224.78;;;6.66;54.06
64853;BME280;56050;55.558;-4.644;2023-04-24T05:26:05;101220.56;;;6.65;53.99
64853;BME280;56050;55.558;-4.644;2023-04-24T05:28:30;101223.56;;;6.64;53.95
64853;BME280;56050;55.558;-4.644;2023-04-24T05:30:56;101224.63;;;6.59;53.92
64853;BME280;56050;55.558;-4.644;2023-04-24T05:33:21;101233.34;;;6.56;54.10
64853;BME280;56050;55.558;-4.644;2023-04-24T05:35:48;101233.59;;;6.51;53.92
64853;BME280;56050;55.558;-4.644;2023-04-24T05:38:13;101239.56;;;6.44;54.13
64853;BME280;56050;55.558;-4.644;2023-04-24T05:40:40;101236.44;;;6.42;54.29
64853;BME280;56050;55.558;-4.644;2023-04-24T05:43:05;101236.09;;;6.44;54.39
64853;BME280;56050;55.558;-4.644;2023-04-24T05:45:30;101239.91;;;6.43;54.26
64853;BME280;56050;55.558;-4.644;2023-04-24T05:47:56;101241.91;;;6.46;54.37
64853;BME280;56050;55.558;-4.644;2023-04-24T05:50:22;101246.09;;;6.47;54.26
64853;BME280;56050;55.558;-4.644;2023-04-24T05:52:47;101245.09;;;6.52;54.08
64853;BME280;56050;55.558;-4.644;2023-04-24T05:55:12;101254.41;;;6.58;54.15
64853;BME280;56050;55.558;-4.644;2023-04-24T05:57:38;101256.91;;;6.66;54.13
64853;BME280;56050;55.558;-4.644;2023-04-24T06:00:04;101253.63;;;6.73;53.77
64853;BME280;56050;55.558;-4.644;2023-04-24T06:02:30;101261.38;;;6.78;53.98
64853;BME280;56050;55.558;-4.644;2023-04-24T06:04:58;101258.03;;;6.81;53.84
64853;BME280;56050;55.558;-4.644;2023-04-24T06:07:24;101271.06;;;6.82;53.88
64853;BME280;56050;55.558;-4.644;2023-04-24T06:09:51;101276.06;;;6.84;53.90
64853;BME280;56050;55.558;-4.644;2023-04-24T06:12:17;101273.03;;;6.85;53.97
64853;BME280;56050;55.558;-4.644;2023-04-24T06:14:42;101283.47;;;6.90;53.76
64853;BME280;56050;55.558;-4.644;2023-04-24T06:17:07;101281.25;;;6.92;53.82
64853;BME280;56050;55.558;-4.644;2023-04-24T06:19:33;101286.25;;;6.94;53.52
64853;BME280;56050;55.558;-4.644;2023-04-24T06:21:58;101287.81;;;6.95;53.54
64853;BME280;56050;55.558;-4.644;2023-04-24T06:24:27;101290.50;;;6.95;53.39
64853;BME280;56050;55.558;-4.644;2023-04-24T06:26:53;101288.59;;;6.95;53.19
64853;BME280;56050;55.558;-4.644;2023-04-24T06:29:18;101287.91;;;6.98;53.18
64853;BME280;56050;55.558;-4.644;2023-04-24T06:31:43;101288.31;;;7.00;53.15
64853;BME280;56050;55.558;-4.644;2023-04-24T06:34:08;101294.97;;;7.06;53.11
64853;BME280;56050;55.558;-4.644;2023-04-24T06:36:34;101294.78;;;7.15;52.83
64853;BME280;56050;55.558;-4.644;2023-04-24T06:39:01;101293.38;;;7.21;52.78
64853;BME280;56050;55.558;-4.644;2023-04-24T06:41:26;101296.66;;;7.30;52.73
64853;BME280;56050;55.558;-4.644;2023-04-24T06:43:52;101298.72;;;7.37;52.31
64853;BME280;56050;55.558;-4.644;2023-04-24T06:46:17;101297.03;;;7.48;52.54
64853;BME280;56050;55.558;-4.644;2023-04-24T06:48:43;101299.09;;;7.54;52.03
64853;BME280;56050;55.558;-4.644;2023-04-24T06:51:08;101304.16;;;7.59;51.73
64853;BME280;56050;55.558;-4.644;2023-04-24T06:53:34;101309.59;;;7.63;51.83
64853;BME280;56050;55.558;-4.644;2023-04-24T06:56:00;101307.78;;;7.67;51.96
64853;BME280;56050;55.558;-4.644;2023-04-24T06:58:25;101303.72;;;7.73;51.74
64853;BME280;56050;55.558;-4.644;2023-04-24T07:00:51;101313.78;;;7.80;51.18
64853;BME280;56050;55.558;-4.644;2023-04-24T07:03:16;101311.53;;;7.82;50.69
64853;BME280;56050;55.558;-4.644;2023-04-24T07:05:41;101308.13;;;7.85;50.68
64853;BME280;56050;55.558;-4.644;2023-04-24T07:08:07;101313.66;;;7.92;50.44
64853;BME280;56050;55.558;-4.644;2023-04-24T07:10:34;101314.16;;;7.97;50.06
64853;BME280;56050;55.558;-4.644;2023-04-24T07:12:59;101313.44;;;8.00;49.98
64853;BME280;56050;55.558;-4.644;2023-04-24T07:15:24;101314.00;;;8.09;49.98
64853;BME280;56050;55.558;-4.644;2023-04-24T07:17:50;101308.78;;;8.16;49.69
64853;BME280;56050;55.558;-4.644;2023-04-24T07:20:15;101309.00;;;8.27;49.56
64853;BME280;56050;55.558;-4.644;2023-04-24T07:22:41;101310.34;;;8.37;49.71
64853;BME280;56050;55.558;-4.644;2023-04-24T07:25:07;101307.13;;;8.50;49.60
64853;BME280;56050;55.558;-4.644;2023-04-24T07:27:33;101305.09;;;8.66;49.33
64853;BME280;56050;55.558;-4.644;2023-04-24T07:29:59;101314.91;;;8.81;49.41
64853;BME280;56050;55.558;-4.644;2023-04-24T07:32:24;101319.03;;;8.98;48.90
64853;BME280;56050;55.558;-4.644;2023-04-24T07:34:50;101321.47;;;9.07;48.22
64853;BME280;56050;55.558;-4.644;2023-04-24T07:37:15;101316.63;;;9.16;48.26
64853;BME280;56050;55.558;-4.644;2023-04-24T07:39:41;101316.06;;;9.29;47.85
64853;BME280;56050;55.558;-4.644;2023-04-24T07:42:06;101304.63;;;9.36;47.24
64853;BME280;56050;55.558;-4.644;2023-04-24T07:44:32;101312.78;;;9.43;46.49
64853;BME280;56050;55.558;-4.644;2023-04-24T07:46:57;101310.88;;;9.43;45.75
64853;BME280;56050;55.558;-4.644;2023-04-24T07:49:23;101324.22;;;9.36;45.37
64853;BME280;56050;55.558;-4.644;2023-04-24T07:51:49;101316.13;;;9.33;45.58
64853;BME280;56050;55.558;-4.644;2023-04-24T07:54:15;101324.94;;;9.33;45.91
64853;BME280;56050;55.558;-4.644;2023-04-24T07:56:41;101337.03;;;9.47;45.97
64853;BME280;56050;55.558;-4.644;2023-04-24T07:59:08;101331.88;;;9.61;45.60
64853;BME280;56050;55.558;-4.644;2023-04-24T08:01:35;101333.97;;;9.74;44.97
64853;BME280;56050;55.558;-4.644;2023-04-24T08:04:00;101342.13;;;9.81;45.03
64853;BME280;56050;55.558;-4.644;2023-04-24T08:06:26;101328.72;;;9.85;45.02
64853;BME280;56050;55.558;-4.644;2023-04-24T08:08:55;101339.19;;;9.93;44.61
64853;BME280;56050;55.558;-4.644;2023-04-24T08:11:21;101338.88;;;9.98;44.74
64853;BME280;56050;55.558;-4.644;2023-04-24T08:13:46;101339.31;;;10.04;44.87
64853;BME280;56050;55.558;-4.644;2023-04-24T08:16:12;101341.75;;;10.13;44.29
64853;BME280;56050;55.558;-4.644;2023-04-24T08:18:37;101352.25;;;10.21;44.69
64853;BME280;56050;55.558;-4.644;2023-04-24T08:21:03;101355.50;;;10.37;44.92
64853;BME280;56050;55.558;-4.644;2023-04-24T08:23:29;101341.06;;;10.56;44.75
64853;BME280;56050;55.558;-4.644;2023-04-24T08:25:55;101341.56;;;10.69;44.24
64853;BME280;56050;55.558;-4.644;2023-04-24T08:28:20;101344.78;;;10.85;44.77
64853;BME280;56050;55.558;-4.644;2023-04-24T08:30:46;101357.69;;;11.09;44.04
64853;BME280;56050;55.558;-4.644;2023-04-24T08:33:20;101353.53;;;11.22;43.16
64853;BME280;56050;55.558;-4.644;2023-04-24T08:35:45;101352.84;;;11.29;43.17
64853;BME280;56050;55.558;-4.644;2023-04-24T08:38:11;101347.78;;;11.27;41.62
64853;BME280;56050;55.558;-4.644;2023-04-24T08:40:36;101345.81;;;11.17;42.57
64853;BME280;56050;55.558;-4.644;2023-04-24T08:43:03;101349.25;;;11.14;42.55
64853;BME280;56050;55.558;-4.644;2023-04-24T08:45:29;101349.63;;;11.12;42.60
64853;BME280;56050;55.558;-4.644;2023-04-24T08:47:54;101355.78;;;11.13;42.04
64853;BME280;56050;55.558;-4.644;2023-04-24T08:50:21;101357.31;;;11.07;40.96
64853;BME280;56050;55.558;-4.644;2023-04-24T08:52:50;101347.56;;;10.95;41.31
64853;BME280;56050;55.558;-4.644;2023-04-24T08:55:16;101348.63;;;10.84;41.64
64853;BME280;56050;55.558;-4.644;2023-04-24T08:57:45;101356.75;;;10.87;42.18
64853;BME280;56050;55.558;-4.644;2023-04-24T09:00:11;101344.50;;;10.97;41.88
64853;BME280;56050;55.558;-4.644;2023-04-24T09:02:41;101355.75;;;11.06;42.38
64853;BME280;56050;55.558;-4.644;2023-04-24T09:05:07;101361.28;;;11.27;42.20
64853;BME280;56050;55.558;-4.644;2023-04-24T09:07:35;101360.63;;;11.44;42.25
64853;BME280;56050;55.558;-4.644;2023-04-24T09:10:02;101349.94;;;11.58;41.93
64853;BME280;56050;55.558;-4.644;2023-04-24T09:12:27;101367.69;;;11.66;41.69
64853;BME280;56050;55.558;-4.644;2023-04-24T09:14:54;101356.56;;;11.68;41.72
64853;BME280;56050;55.558;-4.644;2023-04-24T09:17:20;101352.34;;;11.74;41.64
64853;BME280;56050;55.558;-4.644;2023-04-24T09:19:48;101360.09;;;11.75;41.41
64853;BME280;56050;55.558;-4.644;2023-04-24T09:22:13;101358.91;;;11.73;41.35
64853;BME280;56050;55.558;-4.644;2023-04-24T09:24:40;101355.03;;;11.74;41.37
64853;BME280;56050;55.558;-4.644;2023-04-24T09:27:06;101363.13;;;11.74;41.28
64853;BME280;56050;55.558;-4.644;2023-04-24T09:29:32;101368.19;;;11.75;41.21
64853;BME280;56050;55.558;-4.644;2023-04-24T09:31:58;101364.72;;;11.82;41.08
64853;BME280;56050;55.558;-4.644;2023-04-24T09:34:26;101372.16;;;11.96;41.29
64853;BME280;56050;55.558;-4.644;2023-04-24T09:36:53;101364.84;;;12.03;40.67
64853;BME280;56050;55.558;-4.644;2023-04-24T09:39:19;101370.63;;;12.05;40.37
64853;BME280;56050;55.558;-4.644;2023-04-24T09:41:52;101379.47;;;11.99;39.12
64853;BME280;56050;55.558;-4.644;2023-04-24T09:44:23;101375.59;;;11.93;39.78
64853;BME280;56050;55.558;-4.644;2023-04-24T09:46:56;101381.78;;;11.97;40.04
64853;BME280;56050;55.558;-4.644;2023-04-24T09:49:24;101381.00;;;12.00;39.96
64853;BME280;56050;55.558;-4.644;2023-04-24T09:51:50;101380.25;;;12.03;40.16
64853;BME280;56050;55.558;-4.644;2023-04-24T09:54:20;101374.47;;;12.04;39.91
64853;BME280;56050;55.558;-4.644;2023-04-24T09:56:47;101373.72;;;12.11;40.20
64853;BME280;56050;55.558;-4.644;2023-04-24T09:59:14;101374.16;;;12.20;40.04
64853;BME280;56050;55.558;-4.644;2023-04-24T10:01:40;101381.88;;;12.25;39.75
64853;BME280;56050;55.558;-4.644;2023-04-24T10:04:19;101381.09;;;12.21;40.05
64853;BME280;56050;55.558;-4.644;2023-04-24T10:06:46;101380.72;;;12.19;40.04
64853;BME280;56050;55.558;-4.644;2023-04-24T10:09:12;101383.03;;;12.17;40.02
64853;BME280;56050;55.558;-4.644;2023-04-24T10:11:42;101379.16;;;12.21;40.11
64853;BME280;56050;55.558;-4.644;2023-04-24T10:14:10;101382.28;;;12.27;39.99
64853;BME280;56050;55.558;-4.644;2023-04-24T10:16:36;101379.63;;;12.34;40.00
64853;BME280;56050;55.558;-4.644;2023-04-24T10:19:02;101380.00;;;12.40;40.04
64853;BME280;56050;55.558;-4.644;2023-04-24T10:21:28;101378.09;;;12.47;40.03
64853;BME280;56050;55.558;-4.644;2023-04-24T10:23:55;101377.34;;;12.50;39.90
64853;BME280;56050;55.558;-4.644;2023-04-24T10:26:22;101374.63;;;12.50;39.92
64853;BME280;56050;55.558;-4.644;2023-04-24T10:28:48;101374.66;;;12.54;39.96
64853;BME280;56050;55.558;-4.644;2023-04-24T10:31:14;101382.38;;;12.66;39.89
64853;BME280;56050;55.558;-4.644;2023-04-24T10:33:43;101379.31;;;12.74;39.71
64853;BME280;56050;55.558;-4.644;2023-04-24T10:36:11;101392.44;;;12.83;39.65
64853;BME280;56050;55.558;-4.644;2023-04-24T10:38:39;101389.38;;;12.81;39.26
64853;BME280;56050;55.558;-4.644;2023-04-24T10:41:11;101379.69;;;12.76;39.13
64853;BME280;56050;55.558;-4.644;2023-04-24T10:43:46;101396.69;;;12.77;39.35
64853;BME280;56050;55.558;-4.644;2023-04-24T10:46:19;101386.25;;;12.82;39.26
64853;BME280;56050;55.558;-4.644;2023-04-24T10:48:52;101397.88;;;12.86;39.09
64853;BME280;56050;55.558;-4.644;2023-04-24T10:51:22;101394.75;;;12.88;39.09
64853;BME280;56050;55.558;-4.644;2023-04-24T10:53:49;101392.06;;;12.88;38.84
64853;BME280;56050;55.558;-4.644;2023-04-24T10:56:15;101384.34;;;12.83;38.68
64853;BME280;56050;55.558;-4.644;2023-04-24T10:58:50;101394.34;;;12.79;38.78
64853;BME280;56050;55.558;-4.644;2023-04-24T11:01:43;101388.56;;;12.73;38.31
64853;BME280;56050;55.558;-4.644;2023-04-24T11:04:29;101389.69;;;12.65;38.44
64853;BME280;56050;55.558;-4.644;2023-04-24T11:06:55;101391.66;;;12.61;38.77
64853;BME280;56050;55.558;-4.644;2023-04-24T11:09:20;101395.50;;;12.64;38.63
64853;BME280;56050;55.558;-4.644;2023-04-24T11:11:47;101390.13;;;12.67;38.80
64853;BME280;56050;55.558;-4.644;2023-04-24T11:14:16;101398.63;;;12.73;38.78
64853;BME280;56050;55.558;-4.644;2023-04-24T11:16:44;101388.94;;;12.79;37.73
64853;BME280;56050;55.558;-4.644;2023-04-24T11:19:18;101394.75;;;12.74;38.10
64853;BME280;56050;55.558;-4.644;2023-04-24T11:29:43;101390.50;;;12.80;36.88
64853;BME280;56050;55.558;-4.644;2023-04-24T11:32:18;101395.13;;;12.76;37.27
64853;BME280;56050;55.558;-4.644;2023-04-24T11:34:48;101394.38;;;12.72;36.95
64853;BME280;56050;55.558;-4.644;2023-04-24T11:37:14;101401.69;;;12.61;37.27
64853;BME280;56050;55.558;-4.644;2023-04-24T11:39:40;101393.94;;;12.52;36.90
64853;BME280;56050;55.558;-4.644;2023-04-24T11:42:06;101403.56;;;12.46;37.26
64853;BME280;56050;55.558;-4.644;2023-04-24T11:44:34;101398.19;;;12.50;37.22
64853;BME280;56050;55.558;-4.644;2023-04-24T11:47:00;101415.94;;;12.54;37.51
64853;BME280;56050;55.558;-4.644;2023-04-24T11:49:25;101407.06;;;12.57;36.68
64853;BME280;56050;55.558;-4.644;2023-04-24T11:51:55;101406.28;;;12.50;37.03
64853;BME280;56050;55.558;-4.644;2023-04-24T11:54:20;101411.28;;;12.44;37.08
64853;BME280;56050;55.558;-4.644;2023-04-24T11:56:47;101413.59;;;12.38;36.77
64853;BME280;56050;55.558;-4.644;2023-04-24T11:59:12;101420.50;;;12.32;36.96
64853;BME280;56050;55.558;-4.644;2023-04-24T12:01:47;101419.34;;;12.30;37.26
64853;BME280;56050;55.558;-4.644;2023-04-24T12:04:17;101419.75;;;12.39;37.33
64853;BME280;56050;55.558;-4.644;2023-04-24T12:07:02;101416.31;;;12.49;37.51
64853;BME280;56050;55.558;-4.644;2023-04-24T12:09:28;101433.75;;;12.66;37.19
64853;BME280;56050;55.558;-4.644;2023-04-24T12:11:54;101416.75;;;12.69;36.95
64853;BME280;56050;55.558;-4.644;2023-04-24T12:14:22;101415.22;;;12.64;36.67
64853;BME280;56050;55.558;-4.644;2023-04-24T12:16:48;101409.78;;;12.61;37.08
64853;BME280;56050;55.558;-4.644;2023-04-24T12:19:23;101421.38;;;12.68;37.12
64853;BME280;56050;55.558;-4.644;2023-04-24T12:22:03;101422.94;;;12.76;36.91
64853;BME280;56050;55.558;-4.644;2023-04-24T12:24:29;101431.47;;;12.85;36.92
64853;BME280;56050;55.558;-4.644;2023-04-24T12:26:56;101423.34;;;12.92;37.03
64853;BME280;56050;55.558;-4.644;2023-04-24T12:29:22;101426.44;;;12.98;36.96
64853;BME280;56050;55.558;-4.644;2023-04-24T12:31:49;101429.16;;;12.94;36.48
64853;BME280;56050;55.558;-4.644;2023-04-24T12:34:22;101426.44;;;12.84;36.96
64853;BME280;56050;55.558;-4.644;2023-04-24T12:36:49;101433.03;;;12.86;37.20
64853;BME280;56050;55.558;-4.644;2023-04-24T12:39:17;101433.41;;;12.95;37.12
64853;BME280;56050;55.558;-4.644;2023-04-24T12:41:59;101435.00;;;13.07;37.09
64853;BME280;56050;55.558;-4.644;2023-04-24T12:44:35;101430.75;;;13.13;37.07
64853;BME280;56050;55.558;-4.644;2023-04-24T12:47:02;101426.88;;;13.21;36.99
64853;BME280;56050;55.558;-4.644;2023-04-24T12:49:29;101427.28;;;13.27;37.14